createdAt,value
2022-08-26T00:02:00.438Z,7.53
2022-08-26T00:04:31.694Z,7.55
2022-08-26T00:06:59.937Z,6.93
2022-08-26T00:09:28.563Z,7.22
2022-08-26T00:11:56.935Z,7.22
2022-08-26T00:14:30.782Z,7.47
2022-08-26T00:16:59.301Z,7.03
2022-08-26T00:19:29.262Z,6.90
2022-08-26T00:21:57.295Z,7.57
2022-08-26T00:24:25.585Z,7.03
2022-08-26T00:26:53.866Z,6.50
2022-08-26T00:29:22.391Z,6.70
2022-08-26T00:31:51.148Z,6.60
2022-08-26T00:34:19.707Z,6.78
2022-08-26T00:36:52.012Z,6.43
2022-08-26T00:39:21.058Z,6.65
2022-08-26T00:41:49.096Z,6.75
2022-08-26T00:44:17.468Z,6.47
2022-08-26T00:46:50.151Z,6.57
2022-08-26T00:49:23.198Z,6.60
2022-08-26T00:51:55.792Z,6.95
2022-08-26T00:54:27.925Z,6.57
2022-08-26T00:57:00.357Z,6.55
2022-08-26T00:59:32.923Z,6.53
2022-08-26T01:02:03.033Z,6.80
2022-08-26T01:04:32.586Z,7.28
2022-08-26T01:07:02.626Z,7.18
2022-08-26T01:09:31.422Z,7.30
2022-08-26T01:12:02.832Z,8.23
2022-08-26T01:14:34.901Z,7.88
2022-08-26T01:17:07.368Z,7.97
2022-08-26T01:19:43.505Z,7.68
2022-08-26T01:22:18.307Z,8.40
2022-08-26T01:24:49.240Z,7.65
2022-08-26T01:27:20.632Z,7.57
2022-08-26T01:29:50.378Z,7.47
2022-08-26T01:32:22.262Z,7.68
2022-08-26T01:34:51.819Z,7.80
2022-08-26T01:37:23.051Z,7.38
2022-08-26T01:39:54.568Z,7.47
2022-08-26T01:42:25.779Z,7.50
2022-08-26T01:44:58.892Z,8.13
2022-08-26T01:47:29.961Z,7.68
2022-08-26T01:50:03.050Z,7.47
2022-08-26T01:52:34.266Z,7.25
2022-08-26T01:55:05.515Z,7.88
2022-08-26T01:57:37.234Z,7.32
2022-08-26T02:00:13.196Z,7.05
2022-08-26T02:02:47.459Z,7.47
2022-08-26T02:05:18.696Z,7.60
2022-08-26T02:07:48.578Z,7.50
2022-08-26T02:10:20.747Z,7.38
2022-08-26T02:12:48.869Z,7.03
2022-08-26T02:15:17.278Z,6.88
2022-08-26T02:17:47.379Z,7.05
2022-08-26T02:20:20.142Z,6.95
2022-08-26T02:22:48.963Z,6.53
2022-08-26T02:25:25.105Z,6.40
2022-08-26T02:27:54.619Z,5.97
2022-08-26T02:30:26.889Z,6.10
2022-08-26T02:32:56.594Z,5.90
2022-08-26T02:35:25.533Z,5.78
2022-08-26T02:37:54.076Z,5.50
2022-08-26T02:40:28.005Z,5.72
2022-08-26T02:42:57.091Z,5.82
2022-08-26T02:45:26.243Z,6.25
2022-08-26T02:47:54.416Z,6.03
2022-08-26T02:50:25.626Z,6.38
2022-08-26T02:52:54.049Z,6.35
2022-08-26T02:55:24.692Z,6.00
2022-08-26T02:57:53.164Z,6.65
2022-08-26T03:00:21.502Z,6.63
2022-08-26T03:02:52.344Z,7.00
2022-08-26T03:05:22.276Z,7.07
2022-08-26T03:07:52.675Z,6.32
2022-08-26T03:10:23.908Z,6.68
2022-08-26T03:12:54.172Z,6.40
2022-08-26T03:15:22.568Z,6.38
2022-08-26T03:17:50.682Z,5.95
2022-08-26T03:20:19.702Z,6.00
2022-08-26T03:22:47.907Z,6.00
2022-08-26T03:25:18.178Z,5.75
2022-08-26T03:27:48.085Z,6.85
2022-08-26T03:30:34.726Z,6.47
2022-08-26T03:33:03.294Z,6.50
2022-08-26T03:35:32.634Z,6.68
2022-08-26T03:38:01.905Z,6.22
2022-08-26T03:40:30.521Z,6.05
2022-08-26T03:43:00.097Z,6.25
2022-08-26T03:45:30.325Z,6.50
2022-08-26T03:47:58.436Z,6.30
2022-08-26T03:50:27.758Z,6.15
2022-08-26T03:52:57.890Z,5.97
2022-08-26T03:55:31.889Z,6.13
2022-08-26T03:58:02.214Z,6.18
2022-08-26T04:00:30.796Z,6.10
2022-08-26T04:02:58.979Z,6.78
2022-08-26T04:05:27.789Z,6.32
2022-08-26T04:07:56.445Z,6.35
2022-08-26T04:10:28.529Z,6.53
2022-08-26T04:13:05.932Z,6.53
2022-08-26T04:15:35.433Z,6.30
2022-08-26T04:18:03.527Z,6.40
2022-08-26T04:20:31.948Z,6.40
2022-08-26T04:23:00.031Z,6.45
2022-08-26T04:25:28.136Z,6.25
2022-08-26T04:27:56.259Z,6.25
2022-08-26T04:30:25.469Z,5.88
2022-08-26T04:32:55.087Z,5.70
2022-08-26T04:35:25.932Z,6.07
2022-08-26T04:37:55.327Z,5.80
2022-08-26T04:40:24.067Z,5.60
2022-08-26T04:42:53.984Z,5.88
2022-08-26T04:45:22.566Z,6.13
2022-08-26T04:47:56.400Z,5.63
2022-08-26T04:50:25.824Z,6.10
2022-08-26T04:52:55.352Z,5.55
2022-08-26T04:55:25.295Z,5.82
2022-08-26T04:58:08.705Z,5.40
2022-08-26T05:00:38.917Z,5.57
2022-08-26T05:03:10.244Z,5.40
2022-08-26T05:05:40.154Z,5.82
2022-08-26T05:08:08.430Z,5.47
2022-08-26T05:10:41.085Z,5.22
2022-08-26T05:13:11.111Z,5.88
2022-08-26T05:15:41.707Z,6.47
2022-08-26T05:18:11.849Z,7.30
2022-08-26T05:20:41.560Z,6.65
2022-08-26T05:23:10.198Z,6.75
2022-08-26T05:25:41.950Z,6.65
2022-08-26T05:28:10.396Z,6.22
2022-08-26T05:30:39.875Z,6.47
2022-08-26T05:33:11.027Z,6.18
2022-08-26T05:35:40.194Z,6.00
2022-08-26T05:38:12.717Z,6.32
2022-08-26T05:40:43.076Z,6.07
2022-08-26T05:43:13.302Z,6.13
2022-08-26T05:45:46.072Z,6.03
2022-08-26T05:48:18.601Z,5.65
2022-08-26T05:50:53.466Z,4.85
2022-08-26T05:53:24.013Z,4.70
2022-08-26T05:55:55.551Z,5.30
2022-08-26T05:58:25.117Z,5.40
2022-08-26T06:01:02.938Z,5.85
2022-08-26T06:03:38.363Z,6.18
2022-08-26T06:06:08.740Z,5.57
2022-08-26T06:08:39.927Z,6.03
2022-08-26T06:11:18.346Z,5.88
2022-08-26T06:13:47.615Z,6.45
2022-08-26T06:16:18.826Z,5.78
2022-08-26T06:18:50.962Z,6.10
2022-08-26T06:21:21.695Z,5.80
2022-08-26T06:24:10.368Z,6.13
2022-08-26T06:26:38.964Z,6.80
2022-08-26T06:29:11.031Z,5.70
2022-08-26T06:31:46.615Z,6.22
2022-08-26T06:34:17.451Z,7.10
2022-08-26T06:36:47.240Z,7.13
2022-08-26T06:39:17.865Z,6.38
2022-08-26T06:41:48.970Z,6.55
2022-08-26T06:44:16.990Z,6.72
2022-08-26T06:46:45.708Z,5.95
2022-08-26T06:49:13.997Z,6.00
2022-08-26T06:51:50.170Z,6.65
2022-08-26T06:54:18.306Z,6.78
2022-08-26T06:56:46.487Z,6.40
2022-08-26T06:59:16.104Z,7.13
2022-08-26T07:01:45.666Z,6.20
2022-08-26T07:04:20.273Z,7.00
2022-08-26T07:06:53.939Z,6.85
2022-08-26T07:09:23.586Z,6.95
2022-08-26T07:11:57.238Z,6.40
2022-08-26T07:14:26.509Z,6.88
2022-08-26T07:16:54.930Z,7.00
2022-08-26T07:19:30.087Z,6.82
2022-08-26T07:22:03.662Z,6.90
2022-08-26T07:24:33.334Z,6.97
2022-08-26T07:27:06.021Z,7.03
2022-08-26T07:29:35.735Z,6.78
2022-08-26T07:32:05.098Z,7.28
2022-08-26T07:34:36.102Z,6.70
2022-08-26T07:37:09.115Z,6.05
2022-08-26T07:39:37.750Z,6.30
2022-08-26T07:42:09.233Z,6.53
2022-08-26T07:44:40.690Z,6.47
2022-08-26T07:51:11.912Z,5.55
2022-08-26T07:54:10.206Z,5.68
2022-08-26T07:57:09.359Z,6.07
2022-08-26T07:59:48.190Z,5.78
2022-08-26T08:02:17.408Z,5.18
2022-08-26T08:04:50.362Z,5.60
2022-08-26T08:07:46.222Z,6.00
2022-08-26T08:10:18.849Z,5.93
2022-08-26T08:12:49.384Z,6.35
2022-08-26T08:15:21.825Z,5.70
2022-08-26T08:17:51.705Z,5.80
2022-08-26T08:20:21.239Z,5.70
2022-08-26T08:22:52.247Z,5.20
2022-08-26T08:25:24.822Z,5.10
2022-08-26T08:27:52.946Z,5.00
2022-08-26T08:30:24.145Z,4.43
2022-08-26T08:32:52.723Z,4.57
2022-08-26T08:35:22.699Z,4.18
2022-08-26T08:37:54.456Z,4.75
2022-08-26T08:40:31.367Z,4.20
2022-08-26T08:43:03.818Z,4.22
2022-08-26T08:45:38.814Z,4.35
2022-08-26T08:48:15.344Z,4.43
2022-08-26T08:50:47.024Z,4.75
2022-08-26T08:53:18.664Z,4.78
2022-08-26T08:56:02.652Z,4.53
2022-08-26T08:58:44.592Z,4.93
2022-08-26T09:01:19.424Z,5.07
2022-08-26T09:03:56.185Z,4.68
2022-08-26T09:06:27.725Z,4.80
2022-08-26T09:08:57.483Z,4.60
2022-08-26T09:11:28.630Z,4.60
2022-08-26T09:13:57.795Z,4.68
2022-08-26T09:16:37.644Z,4.82
2022-08-26T09:19:19.304Z,4.55
2022-08-26T09:21:55.654Z,4.72
2022-08-26T09:24:28.350Z,5.28
2022-08-26T09:26:59.237Z,4.40
2022-08-26T09:29:30.585Z,4.82
2022-08-26T09:32:16.118Z,4.82
2022-08-26T09:34:57.706Z,4.78
2022-08-26T09:37:43.153Z,4.70
2022-08-26T09:40:22.480Z,4.55
2022-08-26T09:43:15.878Z,4.63
2022-08-26T09:45:50.161Z,4.50
2022-08-26T09:48:31.763Z,4.50
2022-08-26T09:51:05.666Z,4.90
2022-08-26T09:53:37.628Z,4.47
2022-08-26T09:56:17.635Z,4.03
2022-08-26T09:58:51.925Z,4.75
2022-08-26T10:01:30.479Z,4.20
2022-08-26T10:04:07.641Z,4.20
2022-08-26T10:06:40.197Z,4.25
2022-08-26T10:09:14.827Z,3.97
2022-08-26T10:11:47.277Z,3.95
2022-08-26T10:14:20.599Z,4.70
2022-08-26T10:16:52.905Z,4.60
2022-08-26T10:19:25.284Z,4.53
2022-08-26T10:22:01.834Z,4.80
2022-08-26T10:24:34.923Z,5.20
2022-08-26T10:27:08.896Z,4.30
2022-08-26T10:29:42.418Z,4.78
2022-08-26T10:32:17.081Z,5.38
2022-08-26T10:34:46.121Z,5.13
2022-08-26T10:37:19.446Z,5.07
2022-08-26T10:39:58.462Z,5.38
2022-08-26T10:42:38.158Z,5.65
2022-08-26T10:45:15.053Z,6.15
2022-08-26T10:47:49.896Z,5.57
2022-08-26T10:50:19.325Z,6.30
2022-08-26T10:53:01.078Z,6.40
2022-08-26T10:55:36.383Z,6.82
2022-08-26T10:58:26.045Z,6.75
2022-08-26T11:01:23.286Z,6.10
2022-08-26T11:04:04.291Z,5.82
2022-08-26T11:06:37.569Z,5.78
2022-08-26T11:09:07.393Z,5.85
2022-08-26T11:11:51.581Z,6.03
2022-08-26T11:14:41.105Z,6.47
2022-08-26T11:18:00.722Z,7.70
2022-08-26T11:20:35.643Z,5.85
2022-08-26T11:23:50.552Z,6.22
2022-08-26T11:26:35.607Z,6.13
2022-08-26T11:29:13.271Z,6.75
2022-08-26T11:31:56.848Z,6.25
2022-08-26T11:34:56.273Z,6.78
2022-08-26T11:37:32.898Z,6.20
2022-08-26T11:40:05.516Z,6.50
2022-08-26T11:42:40.982Z,6.55
2022-08-26T11:45:20.567Z,6.13
2022-08-26T11:47:51.222Z,6.50
2022-08-26T11:50:26.038Z,6.25
2022-08-26T11:52:56.794Z,6.13
2022-08-26T11:55:25.682Z,5.75
2022-08-26T11:57:57.613Z,6.70
2022-08-26T12:00:33.691Z,6.28
2022-08-26T12:03:07.449Z,6.07
2022-08-26T12:05:53.969Z,6.75
2022-08-26T12:08:27.893Z,5.93
2022-08-26T12:11:09.809Z,6.38
2022-08-26T12:13:39.238Z,5.80
2022-08-26T12:16:07.950Z,6.40
2022-08-26T12:18:38.327Z,5.80
2022-08-26T12:21:16.095Z,5.88
2022-08-26T12:23:47.435Z,5.78
2022-08-26T12:26:25.460Z,5.82
2022-08-26T12:28:57.519Z,5.53
2022-08-26T12:31:32.017Z,5.55
2022-08-26T12:34:02.155Z,5.57
2022-08-26T12:36:37.361Z,5.80
2022-08-26T12:39:11.208Z,5.53
2022-08-26T12:41:51.076Z,5.10
2022-08-26T12:44:36.786Z,4.95
2022-08-26T12:47:09.854Z,5.38
2022-08-26T12:49:39.983Z,5.53
2022-08-26T12:52:30.065Z,4.50
2022-08-26T12:55:00.609Z,4.60
2022-08-26T12:57:35.166Z,5.28
2022-08-26T13:00:37.939Z,4.88
2022-08-26T13:03:26.072Z,5.15
2022-08-26T13:05:54.170Z,5.68
2022-08-26T13:08:28.931Z,5.30
2022-08-26T13:11:11.423Z,5.45
2022-08-26T13:13:43.578Z,5.40
2022-08-26T13:16:12.322Z,5.25
2022-08-26T13:18:40.758Z,5.10
2022-08-26T13:21:19.070Z,5.85
2022-08-26T13:23:52.289Z,5.38
2022-08-26T13:26:21.375Z,5.50
2022-08-26T13:29:01.964Z,5.57
2022-08-26T13:31:32.382Z,5.60
2022-08-26T13:34:01.994Z,5.68
2022-08-26T13:36:34.804Z,5.22
2022-08-26T13:39:07.128Z,6.10
2022-08-26T13:41:36.246Z,5.40
2022-08-26T13:44:09.371Z,5.10
2022-08-26T13:46:37.937Z,5.53
2022-08-26T13:49:09.097Z,5.28
2022-08-26T13:51:37.672Z,5.18
2022-08-26T13:54:07.938Z,4.68
2022-08-26T13:56:38.358Z,5.32
2022-08-26T13:59:06.895Z,5.05
2022-08-26T14:01:38.358Z,5.47
2022-08-26T14:04:11.284Z,5.20
2022-08-26T14:06:43.704Z,5.35
2022-08-26T14:09:16.720Z,5.80
2022-08-26T14:11:53.915Z,5.68
2022-08-26T14:14:23.334Z,5.90
2022-08-26T14:17:00.144Z,5.75
2022-08-26T14:19:32.097Z,5.25
2022-08-26T14:22:01.424Z,5.68
2022-08-26T14:24:31.322Z,5.28
2022-08-26T14:27:01.238Z,5.38
2022-08-26T14:29:31.848Z,5.22
2022-08-26T14:32:03.127Z,5.57
2022-08-26T14:34:33.954Z,6.00
2022-08-26T14:37:08.262Z,5.97
2022-08-26T14:39:39.374Z,5.65
2022-08-26T14:42:09.062Z,6.00
2022-08-26T14:44:37.980Z,5.88
2022-08-26T14:47:07.168Z,5.90
2022-08-26T14:49:35.379Z,6.30
2022-08-26T14:52:03.932Z,5.38
2022-08-26T14:54:32.054Z,6.20
2022-08-26T14:57:03.819Z,6.18
2022-08-26T14:59:34.481Z,6.93
2022-08-26T15:02:03.436Z,7.03
2022-08-26T15:04:33.638Z,7.22
2022-08-26T15:07:03.234Z,6.70
2022-08-26T15:09:34.149Z,6.35
2022-08-26T15:12:04.249Z,6.38
2022-08-26T15:14:34.727Z,6.13
2022-08-26T15:17:03.084Z,6.65
2022-08-26T15:19:31.137Z,6.20
2022-08-26T15:21:59.233Z,6.13
2022-08-26T15:24:28.811Z,6.40
2022-08-26T15:26:57.612Z,6.07
2022-08-26T15:29:27.174Z,6.43
2022-08-26T15:31:57.296Z,6.78
2022-08-26T15:34:27.207Z,6.57
2022-08-26T15:36:55.908Z,6.68
2022-08-26T15:39:25.748Z,7.45
2022-08-26T15:41:56.447Z,5.93
2022-08-26T15:44:26.597Z,6.00
2022-08-26T15:46:58.595Z,6.15
2022-08-26T15:49:27.608Z,6.22
2022-08-26T15:51:55.700Z,6.13
2022-08-26T15:54:24.784Z,5.63
2022-08-26T15:56:53.055Z,5.70
2022-08-26T15:59:22.667Z,5.80
2022-08-26T16:01:53.390Z,5.95
2022-08-26T16:04:22.170Z,5.85
2022-08-26T16:06:52.242Z,6.22
2022-08-26T16:09:21.115Z,5.95
2022-08-26T16:11:49.167Z,6.45
2022-08-26T16:14:17.678Z,6.72
2022-08-26T16:16:47.988Z,6.85
2022-08-26T16:19:18.535Z,7.20
2022-08-26T16:21:47.264Z,6.97
2022-08-26T16:24:15.434Z,8.15
2022-08-26T16:26:45.288Z,7.57
2022-08-26T16:29:15.403Z,8.30
2022-08-26T16:31:43.821Z,8.10
2022-08-26T16:34:12.556Z,7.70
2022-08-26T16:36:41.975Z,7.40
2022-08-26T16:39:10.741Z,6.88
2022-08-26T16:41:38.817Z,5.78
2022-08-26T16:44:07.955Z,5.60
2022-08-26T16:46:36.518Z,5.35
2022-08-26T16:49:04.756Z,5.20
2022-08-26T16:51:38.252Z,5.35
2022-08-26T16:54:08.952Z,5.13
2022-08-26T16:56:38.516Z,5.20
2022-08-26T16:59:09.522Z,5.20
2022-08-26T17:01:37.734Z,5.53
2022-08-26T17:04:05.974Z,5.40
2022-08-26T17:06:34.348Z,6.05
2022-08-26T17:09:02.494Z,5.57
2022-08-26T17:11:32.215Z,5.60
2022-08-26T17:14:00.577Z,5.63
2022-08-26T17:16:28.722Z,5.75
2022-08-26T17:18:57.367Z,6.72
2022-08-26T17:21:25.998Z,6.53
2022-08-26T17:24:00.375Z,5.03
2022-08-26T17:26:29.173Z,5.05
2022-08-26T17:29:00.206Z,4.75
2022-08-26T17:31:28.337Z,4.82
2022-08-26T17:33:59.406Z,5.10
2022-08-26T17:36:29.765Z,5.05
2022-08-26T17:39:01.329Z,5.95
2022-08-26T17:41:30.006Z,7.40
2022-08-26T17:44:02.231Z,8.52
2022-08-26T17:46:33.239Z,6.90
2022-08-26T17:49:02.855Z,8.18
2022-08-26T17:51:40.455Z,6.93
2022-08-26T17:54:09.206Z,7.13
2022-08-26T17:56:37.356Z,7.75
2022-08-26T17:59:07.289Z,8.23
2022-08-26T18:01:35.614Z,7.18
2022-08-26T18:04:05.159Z,6.85
2022-08-26T18:06:34.255Z,6.53
2022-08-26T18:09:04.747Z,6.47
2022-08-26T18:11:33.490Z,6.00
2022-08-26T18:14:01.732Z,6.03
2022-08-26T18:16:38.148Z,5.78
2022-08-26T18:19:06.855Z,5.50
2022-08-26T18:21:36.198Z,4.63
2022-08-26T18:24:05.161Z,4.40
2022-08-26T18:26:39.086Z,4.15
2022-08-26T18:29:08.528Z,4.47
2022-08-26T18:31:38.619Z,3.50
2022-08-26T18:34:06.850Z,3.72
2022-08-26T18:36:37.818Z,2.60
2022-08-26T18:39:08.076Z,3.50
2022-08-26T18:41:42.681Z,3.20
2022-08-26T18:44:13.598Z,3.08
2022-08-26T18:46:45.116Z,3.30
2022-08-26T18:49:14.261Z,3.38
2022-08-26T18:51:43.251Z,4.00
2022-08-26T18:54:15.429Z,3.90
2022-08-26T18:56:43.788Z,3.72
2022-08-26T18:59:13.605Z,4.28
2022-08-26T19:01:45.331Z,3.88
2022-08-26T19:04:16.613Z,3.53
2022-08-26T19:06:50.682Z,3.70
2022-08-26T19:09:22.276Z,4.35
2022-08-26T19:11:53.835Z,5.28
2022-08-26T19:14:21.900Z,4.85
2022-08-26T19:16:52.551Z,5.45
2022-08-26T19:19:23.797Z,5.47
2022-08-26T19:21:54.972Z,5.55
2022-08-26T19:24:26.005Z,5.68
2022-08-26T19:27:01.681Z,5.95
2022-08-26T19:29:32.027Z,6.50
2022-08-26T19:32:02.891Z,7.15
2022-08-26T19:34:37.417Z,6.38
2022-08-26T19:37:07.309Z,5.90
2022-08-26T19:39:36.191Z,5.53
2022-08-26T19:42:04.342Z,5.55
2022-08-26T19:44:49.785Z,5.57
2022-08-26T19:47:25.245Z,6.60
2022-08-26T19:49:56.601Z,6.03
2022-08-26T19:52:36.624Z,6.53
2022-08-26T19:55:06.837Z,6.80
2022-08-26T19:57:39.307Z,6.82
2022-08-26T20:00:10.474Z,6.90
2022-08-26T20:02:44.239Z,6.18
2022-08-26T20:05:14.856Z,6.18
2022-08-26T20:07:45.707Z,6.13
2022-08-26T20:10:20.700Z,6.30
2022-08-26T20:12:51.898Z,6.20
2022-08-26T20:15:21.733Z,5.90
2022-08-26T20:17:51.458Z,6.00
2022-08-26T20:20:40.065Z,5.65
2022-08-26T20:23:08.394Z,6.63
2022-08-26T20:25:36.771Z,7.32
2022-08-26T20:28:05.423Z,8.00
2022-08-26T20:30:33.585Z,6.90
2022-08-26T20:33:03.072Z,6.75
2022-08-26T20:35:31.239Z,7.35
2022-08-26T20:38:00.007Z,7.22
2022-08-26T20:40:29.069Z,7.55
2022-08-26T20:42:57.399Z,7.75
2022-08-26T20:45:32.245Z,7.15
2022-08-26T20:48:00.441Z,7.07
2022-08-26T20:50:33.402Z,7.10
2022-08-26T20:53:02.353Z,6.63
2022-08-26T20:55:32.154Z,7.03
2022-08-26T20:58:00.628Z,6.60
2022-08-26T21:00:28.987Z,6.43
2022-08-26T21:03:06.631Z,6.22
2022-08-26T21:05:37.340Z,6.68
2022-08-26T21:08:05.523Z,6.57
2022-08-26T21:10:42.440Z,6.57
2022-08-26T21:13:12.830Z,6.57
2022-08-26T21:15:40.905Z,7.72
2022-08-26T21:18:09.219Z,7.32
2022-08-26T21:20:39.100Z,7.07
2022-08-26T21:23:08.510Z,6.72
2022-08-26T21:25:36.687Z,6.60
2022-08-26T21:28:05.296Z,6.53
2022-08-26T21:30:34.262Z,7.75
2022-08-26T21:33:02.257Z,7.72
2022-08-26T21:35:30.292Z,7.95
2022-08-26T21:38:00.017Z,8.05
2022-08-26T21:40:28.663Z,7.72
2022-08-26T21:42:56.904Z,12.52
2022-08-26T21:45:24.962Z,9.25
2022-08-26T21:47:53.157Z,9.05
2022-08-26T21:50:21.586Z,8.63
2022-08-26T21:52:53.463Z,8.40
2022-08-26T21:55:23.304Z,8.75
2022-08-26T21:57:51.582Z,8.13
2022-08-26T22:00:22.630Z,8.27
2022-08-26T22:02:52.412Z,8.18
2022-08-26T22:05:20.729Z,9.48
2022-08-26T22:07:51.930Z,9.60
2022-08-26T22:10:27.181Z,8.73
2022-08-26T22:12:58.599Z,10.13
2022-08-26T22:15:30.314Z,9.73
2022-08-26T22:17:58.928Z,9.40
2022-08-26T22:20:27.722Z,8.57
2022-08-26T22:22:57.515Z,10.38
2022-08-26T22:25:27.265Z,16.80
2022-08-26T22:27:57.306Z,9.15
2022-08-26T22:30:28.271Z,12.15
2022-08-26T22:32:56.423Z,16.33
2022-08-26T22:35:28.729Z,13.43
2022-08-26T22:38:01.016Z,12.75
2022-08-26T22:40:30.654Z,11.90
2022-08-26T22:43:00.460Z,9.00
2022-08-26T22:45:31.275Z,9.27
2022-08-26T22:48:05.444Z,8.98
2022-08-26T22:50:33.761Z,9.57
2022-08-26T22:53:01.897Z,9.95
2022-08-26T22:55:31.637Z,9.30
2022-08-26T22:58:00.140Z,9.05
2022-08-26T23:00:32.027Z,8.98
2022-08-26T23:03:01.512Z,8.00
2022-08-26T23:05:29.695Z,7.72
2022-08-26T23:07:57.979Z,7.68
2022-08-26T23:10:26.582Z,7.85
2022-08-26T23:12:56.259Z,7.63
2022-08-26T23:15:24.588Z,7.72
2022-08-26T23:17:58.575Z,7.55
2022-08-26T23:20:28.553Z,7.88
2022-08-26T23:22:57.307Z,7.53
2022-08-26T23:25:25.783Z,7.50
2022-08-26T23:27:55.476Z,7.57
2022-08-26T23:30:26.607Z,8.30
2022-08-26T23:32:54.984Z,8.15
2022-08-26T23:35:22.413Z,9.23
2022-08-26T23:37:53.041Z,8.80
2022-08-26T23:40:25.407Z,9.52
2022-08-26T23:42:55.634Z,10.88
2022-08-26T23:45:25.256Z,10.75
2022-08-26T23:47:54.230Z,10.73
2022-08-26T23:50:46.046Z,9.98
2022-08-26T23:53:19.368Z,9.77
2022-08-26T23:55:49.341Z,9.65
2022-08-26T23:58:20.381Z,9.52
